createdAt,value
2023-04-02T00:01:38.698Z,75.28
2023-04-02T00:04:23.477Z,75.20
2023-04-02T00:06:54.386Z,75.36
2023-04-02T00:09:32.901Z,75.32
2023-04-02T00:12:15.448Z,75.30
2023-04-02T00:14:47.934Z,75.12
2023-04-02T00:17:16.423Z,75.24
2023-04-02T00:19:46.850Z,75.64
2023-04-02T00:22:17.548Z,75.60
2023-04-02T00:24:45.499Z,75.64
2023-04-02T00:27:15.696Z,75.88
2023-04-02T00:29:48.011Z,76.23
2023-04-02T00:32:19.839Z,76.21
2023-04-02T00:34:47.876Z,75.94
2023-04-02T00:37:23.833Z,76.11
2023-04-02T00:39:54.230Z,75.87
2023-04-02T00:42:25.394Z,75.66
2023-04-02T00:44:54.890Z,76.06
2023-04-02T00:47:24.520Z,75.87
2023-04-02T00:49:56.979Z,76.14
2023-04-02T00:52:27.003Z,76.21
2023-04-02T00:55:00.433Z,76.33
2023-04-02T00:57:29.989Z,76.20
2023-04-02T00:59:59.820Z,76.18
2023-04-02T01:02:29.598Z,75.93
2023-04-02T01:04:58.677Z,76.05
2023-04-02T01:07:34.413Z,76.00
2023-04-02T01:10:11.928Z,76.06
2023-04-02T01:12:49.075Z,76.12
2023-04-02T01:15:19.529Z,75.74
2023-04-02T01:17:59.573Z,75.67
2023-04-02T01:20:42.293Z,76.12
2023-04-02T01:23:13.597Z,76.14
2023-04-02T01:25:44.912Z,76.05
2023-04-02T01:28:19.851Z,76.17
2023-04-02T01:30:52.507Z,75.90
2023-04-02T01:33:22.023Z,76.14
2023-04-02T01:35:53.421Z,76.00
2023-04-02T01:38:23.736Z,76.18
2023-04-02T01:40:55.915Z,76.24
2023-04-02T01:43:27.598Z,75.58
2023-04-02T01:45:58.316Z,75.73
2023-04-02T01:48:30.287Z,75.74
2023-04-02T01:50:59.645Z,76.01
2023-04-02T01:53:29.829Z,75.95
2023-04-02T01:55:59.585Z,75.72
2023-04-02T01:58:29.096Z,75.38
2023-04-02T02:01:00.214Z,75.63
2023-04-02T02:03:28.424Z,75.74
2023-04-02T02:05:56.817Z,75.35
2023-04-02T02:08:32.872Z,75.31
2023-04-02T02:11:00.961Z,75.36
2023-04-02T02:13:28.988Z,75.22
2023-04-02T02:16:00.263Z,75.18
2023-04-02T02:18:29.361Z,75.42
2023-04-02T02:20:58.711Z,75.79
2023-04-02T02:23:29.555Z,75.57
2023-04-02T02:25:57.744Z,75.59
2023-04-02T02:28:27.747Z,75.54
2023-04-02T02:30:59.196Z,75.80
2023-04-02T02:33:30.149Z,75.61
2023-04-02T02:36:01.218Z,75.97
2023-04-02T02:38:45.748Z,75.74
2023-04-02T02:41:17.867Z,75.96
2023-04-02T02:43:47.981Z,75.74
2023-04-02T02:46:18.314Z,75.83
2023-04-02T02:48:48.323Z,75.63
2023-04-02T02:51:22.186Z,75.36
2023-04-02T02:53:52.246Z,75.46
2023-04-02T02:56:22.910Z,75.28
2023-04-02T02:58:52.418Z,75.18
2023-04-02T03:01:20.729Z,74.97
2023-04-02T03:03:53.907Z,74.98
2023-04-02T03:06:22.358Z,75.04
2023-04-02T03:08:52.494Z,75.03
2023-04-02T03:11:25.384Z,74.76
2023-04-02T03:13:56.283Z,74.66
2023-04-02T03:16:27.651Z,74.49
2023-04-02T03:18:59.864Z,74.74
2023-04-02T03:21:29.626Z,74.48
2023-04-02T03:23:59.755Z,74.30
2023-04-02T03:27:16.844Z,74.21
2023-04-02T03:29:49.691Z,73.83
2023-04-02T03:32:18.885Z,73.98
2023-04-02T03:34:50.754Z,74.00
2023-04-02T03:37:21.382Z,74.02
2023-04-02T03:39:53.256Z,73.67
2023-04-02T03:42:23.041Z,73.45
2023-04-02T03:44:53.590Z,73.36
2023-04-02T03:47:29.056Z,73.18
2023-04-02T03:50:01.167Z,72.94
2023-04-02T03:52:30.398Z,73.05
2023-04-02T03:55:00.197Z,72.89
2023-04-02T03:57:32.764Z,72.85
2023-04-02T04:00:05.078Z,72.75
2023-04-02T04:02:41.299Z,72.44
2023-04-02T04:05:21.071Z,72.10
2023-04-02T04:07:51.411Z,72.08
2023-04-02T04:10:21.354Z,71.90
2023-04-02T04:12:50.176Z,71.55
2023-04-02T04:15:22.022Z,71.53
2023-04-02T04:17:55.372Z,71.04
2023-04-02T04:20:28.291Z,71.10
2023-04-02T04:22:58.204Z,70.48
2023-04-02T04:25:29.661Z,70.53
2023-04-02T04:28:05.717Z,70.51
2023-04-02T04:30:36.524Z,70.08
2023-04-02T04:33:06.707Z,69.93
2023-04-02T04:35:39.222Z,70.13
2023-04-02T04:38:09.121Z,69.92
2023-04-02T04:40:38.810Z,69.94
2023-04-02T04:43:08.839Z,69.83
2023-04-02T04:45:41.221Z,69.78
2023-04-02T04:48:11.969Z,69.72
2023-04-02T04:50:47.698Z,69.50
2023-04-02T04:53:17.718Z,69.65
2023-04-02T04:55:46.359Z,69.53
2023-04-02T04:58:18.130Z,69.41
2023-04-02T05:00:52.459Z,69.47
2023-04-02T05:03:25.686Z,69.11
2023-04-02T05:05:55.417Z,69.07
2023-04-02T05:08:27.377Z,68.99
2023-04-02T05:10:58.674Z,68.78
2023-04-02T05:13:31.197Z,68.98
2023-04-02T05:16:04.901Z,68.93
2023-04-02T05:18:34.374Z,68.79
2023-04-02T05:21:07.283Z,68.56
2023-04-02T05:23:36.478Z,68.57
2023-04-02T05:26:08.066Z,68.68
2023-04-02T05:28:38.740Z,68.39
2023-04-02T05:31:08.659Z,68.53
2023-04-02T05:33:37.955Z,68.29
2023-04-02T05:36:09.421Z,68.26
2023-04-02T05:38:38.739Z,68.41
2023-04-02T05:41:08.174Z,68.23
2023-04-02T05:43:38.365Z,68.20
2023-04-02T05:46:15.234Z,68.12
2023-04-02T05:48:44.733Z,67.93
2023-04-02T05:51:18.788Z,67.85
2023-04-02T05:53:49.612Z,67.68
2023-04-02T05:56:20.305Z,67.44
2023-04-02T05:58:49.869Z,67.04
2023-04-02T06:01:33.761Z,66.92
2023-04-02T06:04:06.053Z,66.74
2023-04-02T06:06:47.528Z,66.50
2023-04-02T06:09:19.380Z,66.33
2023-04-02T06:11:50.472Z,65.85
2023-04-02T06:14:19.056Z,65.42
2023-04-02T06:16:47.669Z,64.52
2023-04-02T06:19:19.822Z,64.31
2023-04-02T06:21:51.048Z,64.06
2023-04-02T06:24:22.303Z,63.65
2023-04-02T06:26:52.849Z,62.66
2023-04-02T06:29:26.566Z,61.51
2023-04-02T06:31:56.681Z,62.05
2023-04-02T06:34:25.627Z,61.83
2023-04-02T06:36:58.777Z,61.48
2023-04-02T06:39:27.648Z,61.42
2023-04-02T06:42:01.995Z,60.72
2023-04-02T06:44:33.072Z,59.62
2023-04-02T06:47:03.586Z,59.45
2023-04-02T06:49:35.701Z,58.33
2023-04-02T06:52:07.778Z,58.47
2023-04-02T06:54:35.831Z,58.63
2023-04-02T06:57:05.244Z,59.13
2023-04-02T06:59:33.299Z,59.38
2023-04-02T07:02:03.843Z,58.73
2023-04-02T07:04:31.789Z,58.70
2023-04-02T07:06:59.871Z,58.19
2023-04-02T07:09:29.476Z,58.23
2023-04-02T07:11:57.508Z,57.78
2023-04-02T07:14:25.603Z,58.29
2023-04-02T07:16:53.694Z,58.10
2023-04-02T07:19:22.479Z,58.71
2023-04-02T07:21:50.569Z,58.72
2023-04-02T07:24:18.737Z,58.84
2023-04-02T07:26:48.919Z,58.87
2023-04-02T07:29:17.569Z,58.84
2023-04-02T07:31:48.128Z,58.98
2023-04-02T07:34:16.272Z,58.93
2023-04-02T07:36:44.256Z,58.89
2023-04-02T07:39:12.536Z,58.89
2023-04-02T07:41:54.919Z,58.60
2023-04-02T07:44:22.918Z,57.95
2023-04-02T07:46:50.941Z,57.62
2023-04-02T07:49:18.969Z,57.55
2023-04-02T07:51:47.559Z,56.83
2023-04-02T07:54:15.628Z,57.46
2023-04-02T07:56:43.741Z,57.59
2023-04-02T07:59:13.300Z,57.72
2023-04-02T08:01:43.212Z,58.09
2023-04-02T08:04:19.322Z,58.21
2023-04-02T08:06:48.209Z,58.10
2023-04-02T08:09:16.239Z,58.40
2023-04-02T08:11:44.724Z,58.66
2023-04-02T08:14:14.076Z,58.77
2023-04-02T08:16:46.196Z,59.14
2023-04-02T08:19:17.226Z,59.15
2023-04-02T08:21:45.116Z,59.07
2023-04-02T08:24:13.234Z,59.26
2023-04-02T08:26:41.968Z,59.32
2023-04-02T08:29:10.919Z,59.41
2023-04-02T08:31:40.420Z,59.28
2023-04-02T08:34:08.462Z,59.72
2023-04-02T08:36:37.921Z,60.65
2023-04-02T08:39:06.799Z,60.71
2023-04-02T08:41:38.013Z,60.60
2023-04-02T08:44:12.396Z,60.76
2023-04-02T08:46:45.697Z,60.86
2023-04-02T08:49:15.745Z,61.10
2023-04-02T08:51:43.991Z,60.96
2023-04-02T08:54:17.634Z,60.79
2023-04-02T08:56:52.368Z,60.29
2023-04-02T08:59:25.972Z,59.95
2023-04-02T09:01:59.234Z,59.83
2023-04-02T09:04:27.865Z,60.02
2023-04-02T09:06:57.284Z,60.02
2023-04-02T09:09:28.751Z,60.27
2023-04-02T09:12:01.498Z,60.31
2023-04-02T09:14:34.214Z,60.35
2023-04-02T09:17:05.343Z,60.07
2023-04-02T09:19:35.243Z,59.60
2023-04-02T09:22:10.302Z,59.59
2023-04-02T09:24:38.936Z,59.30
2023-04-02T09:27:18.669Z,59.01
2023-04-02T09:29:47.506Z,58.85
2023-04-02T09:36:18.960Z,59.07
2023-04-02T09:39:06.521Z,58.98
2023-04-02T09:41:36.697Z,59.31
2023-04-02T09:44:15.752Z,59.14
2023-04-02T09:46:51.428Z,58.80
2023-04-02T09:49:20.156Z,58.59
2023-04-02T09:52:07.011Z,58.50
2023-04-02T09:54:41.529Z,58.08
2023-04-02T09:57:18.710Z,58.50
2023-04-02T09:59:46.763Z,58.18
2023-04-02T10:02:25.648Z,57.93
2023-04-02T10:04:53.922Z,57.20
2023-04-02T10:07:35.702Z,57.62
2023-04-02T10:10:16.438Z,57.34
2023-04-02T10:12:45.960Z,57.44
2023-04-02T10:15:17.955Z,56.59
2023-04-02T10:17:47.689Z,56.49
2023-04-02T10:20:19.060Z,56.17
2023-04-02T10:22:48.717Z,55.97
2023-04-02T10:25:17.277Z,54.76
2023-04-02T10:27:48.416Z,55.10
2023-04-02T10:30:20.447Z,54.54
2023-04-02T10:32:52.748Z,54.45
2023-04-02T10:35:25.821Z,54.02
2023-04-02T10:38:11.352Z,53.20
2023-04-02T10:40:42.106Z,52.60
2023-04-02T10:43:31.584Z,51.45
2023-04-02T10:46:02.571Z,51.52
2023-04-02T10:48:34.929Z,50.64
2023-04-02T10:51:05.291Z,50.22
2023-04-02T10:53:39.636Z,47.32
2023-04-02T10:56:11.534Z,47.34
2023-04-02T10:58:44.321Z,45.55
2023-04-02T11:01:17.180Z,46.16
2023-04-02T11:03:46.309Z,45.99
2023-04-02T11:06:18.391Z,45.64
2023-04-02T11:08:48.568Z,44.03
2023-04-02T11:11:17.704Z,43.95
2023-04-02T11:13:52.536Z,42.61
2023-04-02T11:16:21.274Z,43.07
2023-04-02T11:19:07.907Z,42.91
2023-04-02T11:21:54.814Z,44.21
2023-04-02T11:24:41.538Z,44.36
2023-04-02T11:27:17.324Z,45.25
2023-04-02T11:29:46.639Z,45.80
2023-04-02T11:32:29.851Z,45.96
2023-04-02T11:35:26.221Z,46.06
2023-04-02T11:37:54.537Z,45.66
2023-04-02T11:40:54.891Z,45.12
2023-04-02T11:43:41.637Z,45.44
2023-04-02T11:46:32.394Z,45.58
2023-04-02T11:49:31.902Z,46.12
2023-04-02T11:52:10.912Z,46.35
2023-04-02T11:54:40.682Z,46.42
2023-04-02T11:57:16.505Z,46.60
2023-04-02T11:59:50.670Z,46.64
2023-04-02T12:02:25.790Z,46.88
2023-04-02T12:05:14.682Z,47.04
2023-04-02T12:07:52.386Z,47.26
2023-04-02T12:10:21.921Z,47.21
2023-04-02T12:12:50.783Z,47.33
2023-04-02T12:15:33.768Z,46.81
2023-04-02T12:18:11.901Z,45.97
2023-04-02T12:20:39.834Z,45.12
2023-04-02T12:23:07.762Z,44.68
2023-04-02T12:25:40.571Z,44.12
2023-04-02T12:28:17.914Z,44.14
2023-04-02T12:30:46.651Z,44.19
2023-04-02T12:33:28.414Z,44.01
2023-04-02T12:35:58.719Z,43.85
2023-04-02T12:38:28.090Z,43.72
2023-04-02T12:40:57.006Z,44.36
2023-04-02T12:43:26.073Z,44.34
2023-04-02T12:45:54.873Z,44.56
2023-04-02T12:48:25.166Z,44.60
2023-04-02T12:50:53.451Z,45.40
2023-04-02T12:53:23.149Z,45.94
2023-04-02T12:55:51.881Z,47.10
2023-04-02T12:58:25.463Z,47.40
2023-04-02T13:00:53.670Z,48.49
2023-04-02T13:03:22.774Z,49.12
2023-04-02T13:05:57.155Z,49.27
2023-04-02T13:08:27.374Z,49.23
2023-04-02T13:10:56.754Z,49.54
2023-04-02T13:13:28.411Z,50.23
2023-04-02T13:16:03.674Z,50.95
2023-04-02T13:18:33.267Z,51.32
2023-04-02T13:21:04.201Z,50.98
2023-04-02T13:23:37.514Z,51.14
2023-04-02T13:26:16.082Z,50.75
2023-04-02T13:28:44.259Z,50.69
2023-04-02T13:31:16.245Z,50.65
2023-04-02T13:33:44.240Z,50.38
2023-04-02T13:36:15.804Z,50.44
2023-04-02T13:38:43.804Z,50.16
2023-04-02T13:41:19.997Z,49.92
2023-04-02T13:43:47.932Z,49.82
2023-04-02T13:46:19.336Z,49.63
2023-04-02T13:48:47.274Z,49.36
2023-04-02T13:51:19.385Z,49.23
2023-04-02T13:53:48.783Z,49.15
2023-04-02T13:56:16.729Z,49.23
2023-04-02T13:58:44.775Z,49.26
2023-04-02T14:01:12.834Z,49.45
2023-04-02T14:03:40.953Z,49.78
2023-04-02T14:06:12.946Z,49.92
2023-04-02T14:08:53.061Z,50.27
2023-04-02T14:11:29.049Z,50.46
2023-04-02T14:14:03.819Z,50.44
2023-04-02T14:16:48.566Z,50.60
2023-04-02T14:19:26.027Z,50.68
2023-04-02T14:21:58.566Z,50.60
2023-04-02T14:24:31.470Z,50.76
2023-04-02T14:27:15.597Z,50.88
2023-04-02T14:29:49.192Z,51.08
2023-04-02T14:32:20.727Z,51.04
2023-04-02T14:34:52.980Z,50.87
2023-04-02T14:37:24.214Z,51.01
2023-04-02T14:40:00.671Z,51.00
2023-04-02T14:42:33.010Z,51.11
2023-04-02T14:45:06.560Z,51.02
2023-04-02T14:47:38.136Z,51.16
2023-04-02T14:50:12.717Z,51.03
2023-04-02T14:52:44.343Z,51.04
2023-04-02T14:55:17.404Z,51.03
2023-04-02T14:57:51.192Z,51.12
2023-04-02T15:00:27.599Z,51.15
2023-04-02T15:02:57.325Z,51.33
2023-04-02T15:05:29.604Z,51.26
2023-04-02T15:07:59.405Z,51.46
2023-04-02T15:10:30.255Z,51.56
2023-04-02T15:12:58.767Z,51.75
2023-04-02T15:15:39.918Z,52.04
2023-04-02T15:18:11.119Z,52.24
2023-04-02T15:20:41.182Z,52.53
2023-04-02T15:23:14.412Z,52.79
2023-04-02T15:25:45.716Z,53.17
2023-04-02T15:28:19.557Z,53.55
2023-04-02T15:30:50.416Z,54.03
2023-04-02T15:33:31.332Z,54.04
2023-04-02T15:36:17.832Z,54.28
2023-04-02T15:38:49.019Z,54.23
2023-04-02T15:41:23.802Z,54.71
2023-04-02T15:43:57.924Z,55.23
2023-04-02T15:46:29.802Z,54.97
2023-04-02T15:49:07.284Z,54.86
2023-04-02T15:51:38.085Z,55.35
2023-04-02T15:54:14.032Z,55.60
2023-04-02T15:56:50.041Z,55.64
2023-04-02T15:59:35.983Z,55.41
2023-04-02T16:02:14.571Z,55.36
2023-04-02T16:04:53.889Z,55.61
2023-04-02T16:07:28.141Z,55.95
2023-04-02T16:10:00.727Z,56.26
2023-04-02T16:12:30.510Z,56.43
2023-04-02T16:15:06.085Z,56.55
2023-04-02T16:17:38.198Z,56.90
2023-04-02T16:20:16.820Z,57.19
2023-04-02T16:22:59.503Z,58.04
2023-04-02T16:25:29.828Z,58.52
2023-04-02T16:28:03.846Z,58.55
2023-04-02T16:30:38.384Z,58.52
2023-04-02T16:33:16.178Z,58.83
2023-04-02T16:35:46.928Z,58.71
2023-04-02T16:38:20.963Z,58.98
2023-04-02T16:41:06.779Z,59.32
2023-04-02T16:43:41.888Z,59.46
2023-04-02T16:46:13.030Z,59.14
2023-04-02T16:48:46.166Z,58.89
2023-04-02T16:51:18.420Z,58.93
2023-04-02T16:54:01.629Z,58.79
2023-04-02T16:56:36.832Z,58.85
2023-04-02T16:59:13.146Z,58.63
2023-04-02T17:01:46.758Z,58.71
2023-04-02T17:04:32.193Z,58.54
2023-04-02T17:07:07.263Z,58.86
2023-04-02T17:09:40.057Z,58.84
2023-04-02T17:12:15.953Z,58.93
2023-04-02T17:14:50.965Z,58.80
2023-04-02T17:17:19.121Z,58.50
2023-04-02T17:19:48.033Z,58.45
2023-04-02T17:22:18.528Z,58.22
2023-04-02T17:24:49.147Z,58.46
2023-04-02T17:27:21.601Z,58.18
2023-04-02T17:29:53.424Z,58.34
2023-04-02T17:32:24.102Z,58.10
2023-04-02T17:34:52.090Z,58.47
2023-04-02T17:37:24.221Z,58.65
2023-04-02T17:39:56.990Z,58.52
2023-04-02T17:42:31.267Z,58.20
2023-04-02T17:45:05.876Z,58.18
2023-04-02T17:47:39.502Z,58.06
2023-04-02T17:50:34.514Z,58.16
2023-04-02T17:53:05.358Z,58.24
2023-04-02T17:55:40.719Z,58.28
2023-04-02T17:58:17.193Z,58.08
2023-04-02T18:00:54.001Z,58.08
2023-04-02T18:03:36.306Z,57.99
2023-04-02T18:06:07.261Z,58.03
2023-04-02T18:08:41.647Z,58.04
2023-04-02T18:11:11.588Z,58.26
2023-04-02T18:13:42.312Z,58.11
2023-04-02T18:16:34.301Z,58.12
2023-04-02T18:19:08.568Z,57.98
2023-04-02T18:21:40.627Z,57.83
2023-04-02T18:24:27.327Z,57.94
2023-04-02T18:27:01.830Z,57.73
2023-04-02T18:29:37.363Z,57.87
2023-04-02T18:32:13.430Z,57.86
2023-04-02T18:34:56.215Z,57.70
2023-04-02T18:37:29.995Z,58.10
2023-04-02T18:40:08.192Z,57.73
2023-04-02T18:42:45.980Z,58.36
2023-04-02T18:45:18.210Z,58.31
2023-04-02T18:47:50.365Z,58.02
2023-04-02T18:50:23.578Z,58.17
2023-04-02T18:52:53.221Z,57.95
2023-04-02T18:55:22.330Z,58.03
2023-04-02T18:57:52.699Z,58.06
2023-04-02T19:00:27.514Z,58.09
2023-04-02T19:02:58.678Z,58.39
2023-04-02T19:05:32.098Z,58.39
2023-04-02T19:08:04.191Z,58.65
2023-04-02T19:10:33.323Z,58.59
2023-04-02T19:13:01.764Z,58.42
2023-04-02T19:15:36.744Z,58.48
2023-04-02T19:18:09.828Z,58.28
2023-04-02T19:20:42.568Z,58.50
2023-04-02T19:23:20.014Z,58.55
2023-04-02T19:25:57.554Z,58.51
2023-04-02T19:28:30.506Z,58.56
2023-04-02T19:31:04.716Z,58.52
2023-04-02T19:33:42.531Z,58.82
2023-04-02T19:36:18.686Z,58.51
2023-04-02T19:38:55.855Z,58.60
2023-04-02T19:41:29.730Z,58.53
2023-04-02T19:43:57.805Z,58.51
2023-04-02T19:46:27.488Z,58.37
2023-04-02T19:48:59.986Z,58.63
2023-04-02T19:51:28.032Z,58.75
2023-04-02T19:53:57.463Z,58.66
2023-04-02T19:56:25.966Z,58.76
2023-04-02T19:58:54.521Z,58.60
2023-04-02T20:01:22.920Z,58.75
2023-04-02T20:03:51.036Z,58.88
2023-04-02T20:06:37.743Z,58.88
2023-04-02T20:09:09.036Z,59.25
2023-04-02T20:11:37.772Z,59.69
2023-04-02T20:14:06.195Z,59.24
2023-04-02T20:16:34.569Z,59.08
2023-04-02T20:19:02.725Z,59.24
2023-04-02T20:21:35.031Z,59.13
2023-04-02T20:24:03.241Z,59.15
2023-04-02T20:26:32.821Z,59.10
2023-04-02T20:29:05.663Z,59.07
2023-04-02T20:31:36.183Z,59.38
2023-04-02T20:34:06.786Z,59.44
2023-04-02T20:36:34.992Z,59.33
2023-04-02T20:39:03.625Z,59.68
2023-04-02T20:41:33.089Z,59.49
2023-04-02T20:44:01.190Z,59.85
2023-04-02T20:46:29.202Z,59.68
2023-04-02T20:48:57.215Z,60.35
2023-04-02T20:51:25.204Z,60.44
2023-04-02T20:53:53.915Z,60.50
2023-04-02T20:56:23.487Z,61.35
2023-04-02T20:58:52.818Z,61.29
2023-04-02T21:01:22.235Z,61.35
2023-04-02T21:03:50.801Z,61.58
